Preview of NWS' New Version of Forecast
This preview is not operational and should not be used for support decisions.

Terminal Aerodrome Forecast (TAF)

Issued by National Weather Service (NWS)

                            
000
FTUS42 KCAE 191730
TAFOGB
TAF
KOGB 191730Z 1918/2018 07010G15KT P6SM FEW250
     FM200100 VRB03KT P6SM SKC
     FM201400 07007KT P6SM SCT050 SCT250=